createdAt,value
2019-05-11T00:02:00.546Z,14.93
2019-05-11T00:04:29.273Z,20.50
2019-05-11T00:06:57.935Z,15.45
2019-05-11T00:09:26.597Z,15.40
2019-05-11T00:11:55.407Z,23.45
2019-05-11T00:14:24.054Z,16.05
2019-05-11T00:16:52.718Z,18.82
2019-05-11T00:19:21.447Z,20.15
2019-05-11T00:21:50.113Z,15.25
2019-05-11T00:24:18.771Z,22.27
2019-05-11T00:26:47.489Z,15.83
2019-05-11T00:29:16.146Z,12.63
2019-05-11T00:31:44.802Z,19.60
2019-05-11T00:34:13.462Z,15.72
2019-05-11T00:36:42.126Z,21.82
2019-05-11T00:39:10.814Z,21.60
2019-05-11T00:41:39.559Z,22.13
2019-05-11T00:44:08.284Z,20.52
2019-05-11T00:46:36.997Z,13.13
2019-05-11T00:49:05.663Z,14.63
2019-05-11T00:51:34.390Z,24.80
2019-05-11T00:54:03.045Z,23.98
2019-05-11T00:56:31.843Z,18.12
2019-05-11T00:59:00.503Z,18.62
2019-05-11T01:01:29.180Z,17.85
2019-05-11T01:03:57.834Z,18.15
2019-05-11T01:06:26.500Z,23.42
2019-05-11T01:08:55.281Z,20.00
2019-05-11T01:11:23.994Z,16.37
2019-05-11T01:13:52.758Z,16.30
2019-05-11T01:16:21.402Z,18.62
2019-05-11T01:18:50.071Z,14.65
2019-05-11T01:21:18.722Z,14.38
2019-05-11T01:23:47.459Z,16.67
2019-05-11T01:26:16.113Z,21.50
2019-05-11T01:28:44.784Z,19.65
2019-05-11T01:31:13.425Z,19.07
2019-05-11T01:33:42.085Z,21.77
2019-05-11T01:36:10.746Z,17.90
2019-05-11T01:38:39.476Z,16.45
2019-05-11T01:41:08.136Z,18.75
2019-05-11T01:43:36.804Z,15.72
2019-05-11T01:46:05.454Z,15.55
2019-05-11T01:48:34.184Z,15.63
2019-05-11T01:51:02.837Z,18.60
2019-05-11T01:53:31.499Z,18.67
2019-05-11T01:56:00.153Z,18.92
2019-05-11T01:58:28.836Z,24.32
2019-05-11T02:00:57.488Z,19.73
2019-05-11T02:03:26.146Z,19.05
2019-05-11T02:05:54.815Z,19.30
2019-05-11T02:08:23.535Z,20.62
2019-05-11T02:10:52.203Z,20.50
2019-05-11T02:13:21.795Z,21.15
2019-05-11T02:15:50.460Z,28.65
2019-05-11T02:18:19.108Z,19.55
2019-05-11T02:20:47.780Z,22.40
2019-05-11T02:23:16.430Z,21.27
2019-05-11T02:25:45.250Z,19.45
2019-05-11T02:28:13.939Z,21.87
2019-05-11T02:30:42.599Z,24.95
2019-05-11T02:33:11.251Z,22.10
2019-05-11T02:35:40.288Z,20.57
2019-05-11T02:38:08.942Z,26.62
2019-05-11T02:40:37.606Z,22.30
2019-05-11T02:43:06.329Z,24.67
2019-05-11T02:45:38.306Z,22.30
2019-05-11T02:48:07.023Z,21.05
2019-05-11T02:50:37.520Z,28.23
2019-05-11T02:53:07.411Z,28.67
2019-05-11T02:55:36.903Z,22.45
2019-05-11T02:58:07.606Z,24.37
2019-05-11T03:00:41.347Z,21.05
2019-05-11T03:03:10.079Z,26.35
2019-05-11T03:05:38.903Z,25.60
2019-05-11T03:08:07.702Z,22.02
2019-05-11T03:10:36.440Z,33.18
2019-05-11T03:13:05.238Z,22.70
2019-05-11T03:15:33.942Z,17.15
2019-05-11T03:18:02.725Z,23.02
2019-05-11T03:20:31.528Z,24.10
2019-05-11T03:23:00.194Z,24.02
2019-05-11T03:25:29.044Z,21.10
2019-05-11T03:27:57.677Z,25.20
2019-05-11T03:30:26.343Z,24.27
2019-05-11T03:32:55.070Z,16.85
2019-05-11T03:35:23.801Z,22.42
2019-05-11T03:37:52.445Z,25.80
2019-05-11T03:40:21.120Z,28.67
2019-05-11T03:42:49.767Z,20.55
2019-05-11T03:45:18.507Z,24.85
2019-05-11T03:47:47.171Z,17.60
2019-05-11T03:50:16.192Z,23.40
2019-05-11T03:52:44.834Z,25.10
2019-05-11T03:55:16.821Z,21.75
2019-05-11T03:57:45.470Z,17.32
2019-05-11T04:00:14.877Z,18.62
2019-05-11T04:02:43.638Z,20.97
2019-05-11T04:05:12.398Z,25.72
2019-05-11T04:07:41.048Z,18.62
2019-05-11T04:10:09.835Z,18.07
2019-05-11T04:12:38.509Z,20.68
2019-05-11T04:15:08.068Z,26.48
2019-05-11T04:17:36.749Z,18.45
2019-05-11T04:20:06.325Z,19.17
2019-05-11T04:22:35.072Z,21.80
2019-05-11T04:25:04.973Z,16.70
2019-05-11T04:27:33.623Z,15.88
2019-05-11T04:30:02.356Z,16.23
2019-05-11T04:32:31.040Z,15.58
2019-05-11T04:34:59.759Z,23.60
2019-05-11T04:37:28.439Z,19.80
2019-05-11T04:39:57.083Z,16.70
2019-05-11T04:42:25.738Z,19.95
2019-05-11T04:44:54.399Z,21.05
2019-05-11T04:47:23.061Z,16.95
2019-05-11T04:49:51.719Z,18.20
2019-05-11T04:52:20.395Z,16.65
2019-05-11T04:54:49.047Z,24.87
2019-05-11T04:57:17.711Z,17.95
2019-05-11T04:59:46.367Z,20.68
2019-05-11T05:02:16.876Z,15.48
2019-05-11T05:04:45.540Z,15.55
2019-05-11T05:07:16.572Z,18.15
2019-05-11T05:09:44.736Z,17.23
2019-05-11T05:12:14.233Z,19.10
2019-05-11T05:14:43.942Z,24.72
2019-05-11T05:17:12.603Z,22.67
2019-05-11T05:19:41.254Z,22.58
2019-05-11T05:22:10.279Z,15.05
2019-05-11T05:24:38.985Z,21.62
2019-05-11T05:27:07.644Z,29.27
2019-05-11T05:29:36.295Z,17.73
2019-05-11T05:32:05.129Z,15.60
2019-05-11T05:34:33.791Z,15.30
2019-05-11T05:37:02.434Z,15.95
2019-05-11T05:39:31.158Z,17.10
2019-05-11T05:41:59.889Z,15.83
2019-05-11T05:44:28.555Z,22.90
2019-05-11T05:46:57.283Z,20.40
2019-05-11T05:49:25.957Z,29.60
2019-05-11T05:51:58.013Z,20.10
2019-05-11T05:54:24.930Z,17.70
2019-05-11T05:56:53.654Z,13.55
2019-05-11T05:59:22.375Z,19.12
2019-05-11T06:01:51.090Z,18.87
2019-05-11T06:04:19.817Z,22.32
2019-05-11T06:06:48.478Z,15.18
2019-05-11T06:09:17.146Z,13.13
2019-05-11T06:11:45.877Z,17.40
2019-05-11T06:14:14.621Z,16.93
2019-05-11T06:16:43.278Z,19.12
2019-05-11T06:19:11.926Z,17.40
2019-05-11T06:21:40.588Z,15.45
2019-05-11T06:24:09.249Z,14.95
2019-05-11T06:26:37.906Z,13.60
2019-05-11T06:29:06.561Z,16.75
2019-05-11T06:31:35.897Z,15.48
2019-05-11T06:34:04.627Z,15.03
2019-05-11T06:36:33.302Z,19.55
2019-05-11T06:39:01.943Z,14.20
2019-05-11T06:41:30.681Z,14.43
2019-05-11T06:44:01.924Z,11.95
2019-05-11T06:46:29.743Z,13.38
2019-05-11T06:48:58.403Z,11.85
2019-05-11T06:51:27.202Z,8.03
2019-05-11T06:53:55.970Z,13.20
2019-05-11T06:56:24.661Z,11.88
2019-05-11T06:58:53.308Z,9.40
2019-05-11T07:01:22.125Z,10.00
2019-05-11T07:03:50.881Z,9.35
2019-05-11T07:06:19.768Z,11.65
2019-05-11T07:08:48.438Z,11.38
2019-05-11T07:11:17.192Z,10.82
2019-05-11T07:13:45.920Z,9.78
2019-05-11T07:16:14.623Z,7.55
2019-05-11T07:18:43.294Z,12.00
2019-05-11T07:21:11.957Z,10.90
2019-05-11T07:23:40.612Z,9.65
2019-05-11T07:26:09.254Z,8.63
2019-05-11T07:28:37.924Z,12.18
2019-05-11T07:31:06.640Z,9.70
2019-05-11T07:33:35.332Z,6.47
2019-05-11T07:36:04.047Z,7.83
2019-05-11T07:38:32.772Z,8.03
2019-05-11T07:41:01.540Z,10.05
2019-05-11T07:43:30.259Z,9.30
2019-05-11T07:45:58.926Z,11.97
2019-05-11T07:48:28.003Z,8.93
2019-05-11T07:50:58.392Z,14.45
2019-05-11T07:53:27.954Z,8.35
2019-05-11T07:55:57.711Z,14.00
2019-05-11T07:58:28.485Z,8.50
2019-05-11T08:00:58.198Z,12.18
2019-05-11T08:03:28.361Z,12.10
2019-05-11T08:05:58.240Z,8.58
2019-05-11T08:08:28.318Z,11.22
2019-05-11T08:10:58.619Z,15.08
2019-05-11T08:13:28.249Z,9.50
2019-05-11T08:15:57.815Z,10.43
2019-05-11T08:18:28.253Z,9.75
2019-05-11T08:20:58.265Z,7.33
2019-05-11T08:23:28.501Z,11.30
2019-05-11T08:25:58.060Z,5.90
2019-05-11T08:28:28.766Z,20.15
2019-05-11T08:30:58.011Z,14.53
2019-05-11T08:33:28.421Z,9.98
2019-05-11T08:35:58.319Z,10.28
2019-05-11T08:38:28.514Z,11.00
2019-05-11T08:40:59.052Z,10.58
2019-05-11T08:43:28.549Z,11.95
2019-05-11T08:45:57.973Z,9.18
2019-05-11T08:48:28.341Z,11.55
2019-05-11T08:50:58.255Z,7.20
2019-05-11T08:53:28.435Z,13.72
2019-05-11T08:55:58.807Z,15.63
2019-05-11T08:58:27.907Z,6.95
2019-05-11T09:00:58.315Z,6.87
2019-05-11T09:03:28.426Z,6.92
2019-05-11T09:05:57.959Z,13.30
2019-05-11T09:08:28.236Z,8.78
2019-05-11T09:10:58.188Z,5.50
2019-05-11T09:13:27.929Z,8.33
2019-05-11T09:15:58.843Z,12.03
2019-05-11T09:18:28.004Z,7.12
2019-05-11T09:20:57.718Z,7.42
2019-05-11T09:23:34.737Z,7.55
2019-05-11T09:25:58.366Z,13.13
2019-05-11T09:28:29.391Z,11.70
2019-05-11T09:30:57.918Z,11.03
2019-05-11T09:33:28.306Z,10.15
2019-05-11T09:35:58.403Z,10.45
2019-05-11T09:38:27.841Z,9.40
2019-05-11T09:40:58.579Z,11.33
2019-05-11T09:43:28.358Z,9.53
2019-05-11T09:45:58.226Z,11.57
2019-05-11T09:48:28.365Z,17.55
2019-05-11T09:50:58.763Z,8.80
2019-05-11T09:53:28.289Z,9.13
2019-05-11T09:55:58.724Z,10.70
2019-05-11T09:58:28.127Z,9.35
2019-05-11T10:00:58.633Z,7.67
2019-05-11T10:03:28.176Z,8.18
2019-05-11T10:05:57.973Z,12.95
2019-05-11T10:08:28.724Z,8.58
2019-05-11T10:10:58.051Z,10.05
2019-05-11T10:13:27.805Z,9.45
2019-05-11T10:16:04.588Z,9.15
2019-05-11T10:18:28.162Z,12.13
2019-05-11T10:20:58.669Z,10.35
2019-05-11T10:23:27.956Z,15.20
2019-05-11T10:25:58.572Z,11.70
2019-05-11T10:28:28.439Z,11.03
2019-05-11T10:30:57.922Z,8.28
2019-05-11T10:33:28.122Z,12.15
2019-05-11T10:35:58.804Z,12.93
2019-05-11T10:38:28.517Z,8.15
2019-05-11T10:40:58.197Z,10.90
2019-05-11T10:43:28.834Z,7.80
2019-05-11T10:45:58.785Z,19.52
2019-05-11T10:48:28.174Z,7.30
2019-05-11T10:50:57.491Z,15.68
2019-05-11T10:53:27.905Z,11.12
2019-05-11T10:55:58.149Z,7.37
2019-05-11T10:58:28.509Z,9.05
2019-05-11T11:00:58.233Z,5.97
2019-05-11T11:03:28.420Z,11.75
2019-05-11T11:05:58.065Z,12.63
2019-05-11T11:08:27.877Z,12.23
2019-05-11T11:10:58.591Z,10.63
2019-05-11T11:13:28.079Z,9.83
2019-05-11T11:15:58.204Z,8.48
2019-05-11T11:18:28.768Z,11.57
2019-05-11T11:20:58.070Z,9.33
2019-05-11T11:23:28.478Z,12.43
2019-05-11T11:25:58.563Z,6.97
2019-05-11T11:28:28.049Z,13.88
2019-05-11T11:30:58.477Z,13.83
2019-05-11T11:33:27.782Z,7.87
2019-05-11T11:35:58.021Z,12.00
2019-05-11T11:38:28.687Z,10.18
2019-05-11T11:40:59.359Z,8.30
2019-05-11T11:43:28.757Z,12.65
2019-05-11T11:45:58.083Z,12.03
2019-05-11T11:48:28.562Z,10.68
2019-05-11T11:50:58.539Z,10.28
2019-05-11T11:53:27.917Z,11.88
2019-05-11T11:55:58.747Z,11.80
2019-05-11T11:58:27.733Z,9.70
2019-05-11T12:00:58.699Z,9.73
2019-05-11T12:03:27.689Z,9.33
2019-05-11T12:05:58.146Z,9.33
2019-05-11T12:08:28.200Z,9.20
2019-05-11T12:10:58.864Z,9.63
2019-05-11T12:13:29.765Z,11.97
2019-05-11T12:15:58.503Z,10.75
2019-05-11T12:18:28.630Z,13.18
2019-05-11T12:20:58.606Z,12.40
2019-05-11T12:23:28.511Z,14.58
2019-05-11T12:25:58.038Z,12.50
2019-05-11T12:28:27.674Z,8.03
2019-05-11T12:30:58.488Z,7.92
2019-05-11T12:33:27.973Z,11.78
2019-05-11T12:35:58.632Z,11.85
2019-05-11T12:38:27.672Z,11.20
2019-05-11T12:40:57.943Z,15.40
2019-05-11T12:43:27.736Z,10.03
2019-05-11T12:45:58.547Z,10.08
2019-05-11T12:48:28.512Z,9.93
2019-05-11T12:50:58.832Z,11.15
2019-05-11T12:53:28.056Z,8.55
2019-05-11T12:55:58.826Z,8.03
2019-05-11T12:58:28.128Z,11.22
2019-05-11T13:00:58.549Z,9.18
2019-05-11T13:03:27.889Z,12.18
2019-05-11T13:05:58.422Z,13.18
2019-05-11T13:08:27.738Z,11.35
2019-05-11T13:10:58.419Z,9.93
2019-05-11T13:13:28.942Z,8.63
2019-05-11T13:15:58.565Z,13.03
2019-05-11T13:18:28.028Z,14.58
2019-05-11T13:20:58.633Z,13.22
2019-05-11T13:23:28.713Z,11.83
2019-05-11T13:25:58.558Z,11.10
2019-05-11T13:28:28.398Z,12.35
2019-05-11T13:30:57.914Z,15.72
2019-05-11T13:33:27.972Z,8.10
2019-05-11T13:35:57.888Z,10.08
2019-05-11T13:38:28.281Z,14.28
2019-05-11T13:40:59.015Z,17.55
2019-05-11T13:43:28.109Z,15.88
2019-05-11T13:45:58.366Z,13.65
2019-05-11T13:48:28.102Z,11.28
2019-05-11T13:50:58.244Z,9.88
2019-05-11T13:53:27.605Z,12.13
2019-05-11T13:55:58.525Z,16.27
2019-05-11T13:58:27.762Z,9.53
2019-05-11T14:00:58.491Z,10.25
2019-05-11T14:03:27.651Z,10.15
2019-05-11T14:05:58.220Z,13.08
2019-05-11T14:08:27.818Z,11.38
2019-05-11T14:10:58.022Z,11.38
2019-05-11T14:13:28.647Z,10.32
2019-05-11T14:15:58.740Z,12.98
2019-05-11T14:18:28.154Z,11.78
2019-05-11T14:20:58.619Z,12.82
2019-05-11T14:23:30.797Z,11.88
2019-05-11T14:25:57.806Z,13.93
2019-05-11T14:28:28.496Z,11.97
2019-05-11T14:30:57.949Z,13.25
2019-05-11T14:33:28.259Z,15.20
2019-05-11T14:35:57.888Z,13.30
2019-05-11T14:38:28.228Z,11.20
2019-05-11T14:40:58.620Z,11.63
2019-05-11T14:43:27.790Z,11.83
2019-05-11T14:45:57.780Z,12.68
2019-05-11T14:48:29.417Z,11.28
2019-05-11T14:50:59.268Z,11.43
2019-05-11T14:53:28.397Z,9.18
2019-05-11T14:55:58.510Z,10.35
2019-05-11T14:58:28.121Z,9.85
2019-05-11T15:00:58.303Z,10.63
2019-05-11T15:03:28.746Z,11.60
2019-05-11T15:05:58.293Z,17.42
2019-05-11T15:08:28.712Z,9.28
2019-05-11T15:10:57.741Z,11.43
2019-05-11T15:13:28.657Z,7.87
2019-05-11T15:15:58.608Z,11.70
2019-05-11T15:18:36.040Z,9.75
2019-05-11T15:20:58.070Z,13.08
2019-05-11T15:23:28.518Z,12.90
2019-05-11T15:25:58.639Z,14.28
2019-05-11T15:28:28.531Z,12.37
2019-05-11T15:30:58.684Z,10.50
2019-05-11T15:33:27.953Z,9.73
2019-05-11T15:35:58.326Z,14.13
2019-05-11T15:38:28.412Z,15.80
2019-05-11T15:40:57.933Z,15.03
2019-05-11T15:43:28.272Z,15.38
2019-05-11T15:45:57.905Z,20.25
2019-05-11T15:48:26.925Z,18.12
2019-05-11T15:50:57.693Z,13.70
2019-05-11T15:53:25.899Z,17.67
2019-05-11T15:55:54.547Z,17.65
2019-05-11T15:58:23.217Z,19.77
2019-05-11T16:00:51.883Z,14.05
2019-05-11T16:03:20.577Z,13.03
2019-05-11T16:05:49.301Z,10.40
2019-05-11T16:08:18.814Z,17.17
2019-05-11T16:10:48.831Z,10.00
2019-05-11T16:13:18.229Z,11.18
2019-05-11T16:15:47.716Z,12.25
2019-05-11T16:18:18.694Z,15.90
2019-05-11T16:20:49.913Z,12.37
2019-05-11T16:23:17.493Z,9.28
2019-05-11T16:25:48.848Z,11.00
2019-05-11T16:28:19.277Z,10.30
2019-05-11T16:30:48.503Z,13.08
2019-05-11T16:33:17.991Z,13.68
2019-05-11T16:35:49.015Z,14.18
2019-05-11T16:38:18.872Z,13.30
2019-05-11T16:40:48.115Z,13.45
2019-05-11T16:43:19.135Z,12.88
2019-05-11T16:45:50.713Z,12.80
2019-05-11T16:48:20.212Z,14.33
2019-05-11T16:50:48.884Z,14.43
2019-05-11T16:53:18.171Z,14.98
2019-05-11T16:55:48.664Z,16.20
2019-05-11T16:58:19.914Z,14.28
2019-05-11T17:00:48.945Z,12.60
2019-05-11T17:03:18.194Z,11.63
2019-05-11T17:05:48.431Z,13.20
2019-05-11T17:08:18.791Z,13.55
2019-05-11T17:10:59.156Z,11.50
2019-05-11T17:13:28.152Z,14.35
2019-05-11T17:15:58.249Z,11.68
2019-05-11T17:18:28.397Z,14.75
2019-05-11T17:20:58.472Z,12.78
2019-05-11T17:23:30.946Z,13.78
2019-05-11T17:25:58.311Z,12.43
2019-05-11T17:28:27.005Z,14.55
2019-05-11T17:30:55.671Z,14.55
2019-05-11T17:33:24.462Z,12.70
2019-05-11T17:35:53.151Z,7.25
2019-05-11T17:38:21.859Z,19.73
2019-05-11T17:40:50.601Z,13.43
2019-05-11T17:43:19.289Z,11.38
2019-05-11T17:45:48.129Z,33.50
2019-05-11T17:48:17.876Z,12.88
2019-05-11T17:50:46.884Z,11.78
2019-05-11T17:53:17.734Z,13.58
2019-05-11T17:55:48.623Z,13.70
2019-05-11T17:58:18.551Z,16.20
2019-05-11T18:00:48.107Z,20.45
2019-05-11T18:03:17.032Z,32.35
2019-05-11T18:05:48.398Z,15.18
2019-05-11T18:08:21.874Z,11.73
2019-05-11T18:10:48.050Z,12.93
2019-05-11T18:13:16.751Z,6.58
2019-05-11T18:15:50.222Z,6.35
2019-05-11T18:18:19.133Z,10.03
2019-05-11T18:20:50.997Z,72.60
2019-05-11T18:23:20.286Z,15.50
2019-05-11T18:25:49.070Z,18.57
2019-05-11T18:28:18.189Z,27.37
2019-05-11T18:30:47.975Z,9.80
2019-05-11T18:33:18.817Z,7.33
2019-05-11T18:35:47.315Z,10.38
2019-05-11T18:38:17.800Z,9.58
2019-05-11T18:40:48.479Z,10.55
2019-05-11T18:43:18.682Z,7.12
2019-05-11T18:45:48.855Z,10.03
2019-05-11T18:48:18.546Z,10.38
2019-05-11T18:50:49.106Z,9.48
2019-05-11T18:53:18.634Z,11.80
2019-05-11T18:55:48.730Z,10.03
2019-05-11T18:58:18.395Z,8.45
2019-05-11T19:00:48.750Z,11.78
2019-05-11T19:03:19.299Z,9.28
2019-05-11T19:05:48.240Z,12.65
2019-05-11T19:08:18.955Z,16.37
2019-05-11T19:10:48.733Z,11.53
2019-05-11T19:13:17.893Z,11.18
2019-05-11T19:15:48.708Z,8.43
2019-05-11T19:18:17.095Z,10.40
2019-05-11T19:20:49.123Z,10.40
2019-05-11T19:23:16.121Z,7.72
2019-05-11T19:25:44.863Z,10.45
2019-05-11T19:28:13.651Z,11.48
2019-05-11T19:30:42.317Z,8.53
2019-05-11T19:33:11.355Z,7.78
2019-05-11T19:35:40.021Z,10.53
2019-05-11T19:38:08.845Z,9.88
2019-05-11T19:40:38.439Z,11.90
2019-05-11T19:43:08.215Z,11.20
2019-05-11T19:45:38.419Z,10.80
2019-05-11T19:48:08.406Z,19.67
2019-05-11T19:50:40.337Z,10.10
2019-05-11T19:53:08.387Z,11.50
2019-05-11T19:55:37.377Z,14.78
2019-05-11T19:58:06.039Z,11.33
2019-05-11T20:00:34.703Z,13.45
2019-05-11T20:03:03.346Z,12.00
2019-05-11T20:05:31.999Z,13.05
2019-05-11T20:08:00.655Z,14.07
2019-05-11T20:10:29.303Z,8.65
2019-05-11T20:12:58.773Z,8.80
2019-05-11T20:15:27.854Z,7.95
2019-05-11T20:17:58.490Z,4.12
2019-05-11T20:20:28.429Z,4.67
2019-05-11T20:22:58.489Z,3.60
2019-05-11T20:25:28.784Z,3.85
2019-05-11T20:27:58.471Z,4.50
2019-05-11T20:30:27.339Z,5.78
2019-05-11T20:32:56.049Z,5.65
2019-05-11T20:35:24.710Z,3.02
2019-05-11T20:37:53.362Z,3.10
2019-05-11T20:40:22.017Z,1.72
2019-05-11T20:42:50.671Z,2.80
2019-05-11T20:45:19.473Z,3.12
2019-05-11T20:47:48.969Z,0.93
2019-05-11T20:50:18.534Z,1.45
2019-05-11T20:52:48.119Z,2.65
2019-05-11T20:55:18.258Z,2.05
2019-05-11T20:57:48.501Z,4.28
2019-05-11T21:00:19.098Z,3.12
2019-05-11T21:02:48.860Z,10.20
2019-05-11T21:05:18.326Z,7.12
2019-05-11T21:07:47.227Z,8.38
2019-05-11T21:10:16.931Z,12.90
2019-05-11T21:12:45.670Z,7.12
2019-05-11T21:15:15.135Z,7.72
2019-05-11T21:17:43.790Z,13.03
2019-05-11T21:20:12.977Z,8.18
2019-05-11T21:22:41.617Z,7.47
2019-05-11T21:25:10.803Z,7.60
2019-05-11T21:27:39.460Z,8.50
2019-05-11T21:30:09.862Z,7.35
2019-05-11T21:32:39.719Z,6.67
2019-05-11T21:35:09.010Z,9.10
2019-05-11T21:37:38.714Z,7.53
2019-05-11T21:40:09.349Z,7.40
2019-05-11T21:42:39.485Z,8.25
2019-05-11T21:45:10.190Z,9.18
2019-05-11T21:47:39.540Z,9.48
2019-05-11T21:50:10.210Z,7.62
2019-05-11T21:52:39.020Z,9.68
2019-05-11T21:55:09.551Z,7.85
2019-05-11T21:57:38.742Z,6.65
2019-05-11T22:00:09.289Z,11.75
2019-05-11T22:02:38.716Z,6.58
2019-05-11T22:05:08.731Z,7.78
2019-05-11T22:07:38.866Z,7.62
2019-05-11T22:10:09.250Z,5.85
2019-05-11T22:12:40.046Z,6.75
2019-05-11T22:15:09.829Z,6.15
2019-05-11T22:17:39.621Z,5.15
2019-05-11T22:20:09.540Z,5.95
2019-05-11T22:22:39.008Z,4.08
2019-05-11T22:25:10.061Z,4.60
2019-05-11T22:27:39.138Z,4.10
2019-05-11T22:30:08.928Z,4.20
2019-05-11T22:32:38.692Z,6.37
2019-05-11T22:35:09.899Z,5.08
2019-05-11T22:37:39.041Z,3.67
2019-05-11T22:40:08.727Z,2.75
2019-05-11T22:42:38.077Z,2.00
2019-05-11T22:45:10.306Z,3.47
2019-05-11T22:47:39.694Z,5.67
2019-05-11T22:50:10.084Z,3.80
2019-05-11T22:52:40.265Z,0.95
2019-05-11T22:55:11.758Z,1.00
2019-05-11T22:57:40.798Z,3.15
2019-05-11T23:00:10.748Z,0.82
2019-05-11T23:02:39.519Z,1.35
2019-05-11T23:05:08.962Z,2.60
2019-05-11T23:07:41.420Z,1.00
2019-05-11T23:10:10.614Z,3.02
2019-05-11T23:12:39.186Z,2.60
2019-05-11T23:15:10.235Z,2.00
2019-05-11T23:17:38.989Z,0.95
2019-05-11T23:20:08.681Z,0.90
2019-05-11T23:22:51.195Z,3.83
2019-05-11T23:25:09.355Z,1.90
2019-05-11T23:27:39.296Z,0.65
2019-05-11T23:30:08.896Z,1.47
2019-05-11T23:32:37.928Z,1.72
2019-05-11T23:35:08.397Z,0.65
2019-05-11T23:37:42.612Z,3.62
2019-05-11T23:40:11.875Z,1.57
2019-05-11T23:42:40.498Z,0.62
2019-05-11T23:45:09.855Z,0.80
2019-05-11T23:47:39.424Z,1.98
2019-05-11T23:50:08.689Z,0.72
2019-05-11T23:52:38.234Z,0.85
2019-05-11T23:55:08.536Z,0.72
2019-05-11T23:57:38.073Z,0.93
